createdAt,value
2018-03-06T00:02:07.378Z,42.97
2018-03-06T00:04:33.835Z,43.09
2018-03-06T00:07:00.019Z,43.04
2018-03-06T00:09:26.229Z,43.08
2018-03-06T00:11:52.399Z,43.21
2018-03-06T00:14:18.625Z,43.19
2018-03-06T00:16:44.851Z,43.17
2018-03-06T00:19:11.307Z,43.30
2018-03-06T00:21:37.486Z,43.62
2018-03-06T00:24:03.767Z,43.66
2018-03-06T00:26:29.965Z,43.55
2018-03-06T00:28:56.176Z,43.48
2018-03-06T00:31:22.755Z,43.41
2018-03-06T00:33:48.928Z,43.48
2018-03-06T00:36:15.418Z,43.46
2018-03-06T00:38:41.630Z,43.42
2018-03-06T00:41:08.077Z,43.41
2018-03-06T00:43:34.310Z,43.43
2018-03-06T00:46:00.734Z,43.41
2018-03-06T00:48:26.918Z,43.39
2018-03-06T00:50:53.157Z,43.30
2018-03-06T00:53:19.328Z,43.24
2018-03-06T00:55:45.799Z,43.34
2018-03-06T00:58:12.299Z,43.32
2018-03-06T01:00:38.497Z,43.33
2018-03-06T01:03:05.065Z,43.35
2018-03-06T01:05:31.263Z,43.38
2018-03-06T01:07:57.821Z,43.33
2018-03-06T01:10:24.047Z,43.29
2018-03-06T01:12:50.241Z,43.28
2018-03-06T01:15:16.454Z,43.24
2018-03-06T01:17:42.668Z,43.19
2018-03-06T01:20:08.938Z,43.26
2018-03-06T01:22:35.200Z,43.19
2018-03-06T01:25:01.500Z,43.19
2018-03-06T01:27:27.702Z,43.19
2018-03-06T01:29:53.963Z,43.30
2018-03-06T01:32:20.191Z,43.26
2018-03-06T01:34:46.387Z,43.30
2018-03-06T01:37:12.621Z,43.30
2018-03-06T01:39:38.895Z,43.42
2018-03-06T01:42:05.109Z,43.40
2018-03-06T01:44:31.302Z,43.48
2018-03-06T01:46:57.616Z,43.66
2018-03-06T01:49:23.860Z,43.81
2018-03-06T01:51:57.219Z,44.27
2018-03-06T01:54:23.731Z,44.33
2018-03-06T01:56:49.930Z,44.41
2018-03-06T01:59:16.496Z,44.38
2018-03-06T02:01:42.678Z,44.28
2018-03-06T02:04:08.892Z,44.39
2018-03-06T02:06:35.324Z,44.39
2018-03-06T02:09:01.572Z,44.50
2018-03-06T02:11:27.779Z,44.49
2018-03-06T02:13:53.990Z,44.52
2018-03-06T02:16:20.200Z,44.60
2018-03-06T02:18:46.398Z,44.61
2018-03-06T02:21:12.963Z,44.61
2018-03-06T02:23:39.495Z,44.81
2018-03-06T02:26:05.701Z,44.86
2018-03-06T02:28:32.256Z,44.78
2018-03-06T02:30:58.470Z,44.87
2018-03-06T02:33:25.023Z,44.82
2018-03-06T02:35:51.248Z,44.86
2018-03-06T02:38:17.503Z,44.90
2018-03-06T02:40:43.679Z,44.86
2018-03-06T02:43:09.882Z,44.95
2018-03-06T02:45:36.213Z,45.08
2018-03-06T02:48:02.421Z,45.22
2018-03-06T02:50:28.926Z,45.36
2018-03-06T02:52:55.158Z,45.41
2018-03-06T02:55:21.387Z,45.55
2018-03-06T02:57:47.574Z,45.61
2018-03-06T03:00:14.049Z,45.58
2018-03-06T03:02:40.577Z,45.38
2018-03-06T03:05:06.776Z,45.30
2018-03-06T03:07:32.975Z,45.04
2018-03-06T03:09:59.191Z,44.95
2018-03-06T03:12:25.421Z,44.88
2018-03-06T03:14:51.656Z,44.86
2018-03-06T03:17:17.921Z,44.80
2018-03-06T03:19:44.383Z,45.04
2018-03-06T03:22:10.628Z,45.14
2018-03-06T03:24:36.832Z,45.27
2018-03-06T03:27:03.078Z,45.23
2018-03-06T03:29:29.570Z,45.19
2018-03-06T03:32:03.205Z,45.17
2018-03-06T03:34:29.741Z,45.19
2018-03-06T03:36:55.956Z,45.25
2018-03-06T03:39:22.174Z,45.20
2018-03-06T03:41:48.728Z,45.23
2018-03-06T03:44:14.929Z,45.04
2018-03-06T03:46:41.140Z,45.08
2018-03-06T03:49:07.384Z,45.24
2018-03-06T03:51:33.602Z,45.20
2018-03-06T03:53:59.843Z,45.55
2018-03-06T03:56:26.304Z,45.61
2018-03-06T03:58:52.505Z,45.52
2018-03-06T04:01:18.746Z,45.59
2018-03-06T04:03:45.018Z,45.70
2018-03-06T04:06:11.523Z,45.71
2018-03-06T04:08:37.772Z,45.69
2018-03-06T04:11:04.062Z,45.47
2018-03-06T04:13:30.265Z,45.50
2018-03-06T04:15:56.463Z,45.45
2018-03-06T04:18:22.709Z,45.41
2018-03-06T04:20:48.925Z,45.34
2018-03-06T04:23:15.162Z,45.27
2018-03-06T04:25:41.400Z,45.27
2018-03-06T04:28:07.663Z,45.24
2018-03-06T04:30:33.878Z,45.22
2018-03-06T04:33:00.127Z,45.17
2018-03-06T04:35:26.344Z,45.08
2018-03-06T04:37:52.695Z,45.19
2018-03-06T04:40:18.870Z,45.16
2018-03-06T04:42:45.462Z,45.25
2018-03-06T04:45:11.919Z,45.27
2018-03-06T04:47:38.150Z,45.37
2018-03-06T04:50:04.752Z,45.32
2018-03-06T04:52:30.949Z,45.34
2018-03-06T04:54:57.212Z,45.21
2018-03-06T04:57:23.499Z,45.46
2018-03-06T04:59:49.710Z,45.11
2018-03-06T05:02:15.920Z,44.83
2018-03-06T05:04:42.141Z,44.60
2018-03-06T05:07:08.308Z,44.74
2018-03-06T05:09:34.563Z,44.62
2018-03-06T05:12:00.738Z,44.54
2018-03-06T05:14:26.925Z,44.46
2018-03-06T05:16:53.167Z,44.53
2018-03-06T05:19:19.374Z,44.55
2018-03-06T05:21:45.673Z,44.55
2018-03-06T05:24:12.259Z,44.55
2018-03-06T05:26:38.792Z,44.40
2018-03-06T05:29:04.978Z,44.84
2018-03-06T05:31:31.186Z,45.08
2018-03-06T05:33:57.636Z,44.96
2018-03-06T05:36:23.883Z,44.29
2018-03-06T05:38:50.344Z,44.01
2018-03-06T05:41:16.562Z,43.90
2018-03-06T05:43:42.806Z,43.87
2018-03-06T05:46:08.987Z,43.80
2018-03-06T05:48:35.507Z,43.79
2018-03-06T05:51:02.707Z,43.74
2018-03-06T05:53:28.898Z,43.71
2018-03-06T05:55:55.120Z,43.65
2018-03-06T05:58:21.285Z,43.64
2018-03-06T06:00:47.560Z,43.58
2018-03-06T06:03:13.735Z,43.68
2018-03-06T06:05:39.977Z,43.42
2018-03-06T06:08:06.213Z,43.36
2018-03-06T06:10:33.373Z,43.31
2018-03-06T06:12:59.891Z,43.23
2018-03-06T06:15:26.175Z,43.14
2018-03-06T06:17:52.444Z,43.10
2018-03-06T06:20:18.582Z,43.04
2018-03-06T06:22:44.745Z,46.09
2018-03-06T06:25:10.965Z,47.64
2018-03-06T06:27:37.150Z,46.81
2018-03-06T06:30:03.350Z,46.31
2018-03-06T06:32:31.452Z,46.03
2018-03-06T06:34:57.658Z,46.02
2018-03-06T06:37:24.328Z,45.89
2018-03-06T06:39:50.532Z,45.56
2018-03-06T06:42:16.826Z,45.25
2018-03-06T06:44:43.314Z,44.76
2018-03-06T06:47:09.613Z,44.61
2018-03-06T06:49:35.847Z,44.83
2018-03-06T06:52:02.024Z,44.82
2018-03-06T06:54:28.635Z,44.92
2018-03-06T06:56:54.829Z,44.69
2018-03-06T06:59:21.030Z,44.61
2018-03-06T07:01:47.306Z,44.59
2018-03-06T07:04:13.488Z,44.58
2018-03-06T07:06:39.727Z,44.34
2018-03-06T07:09:05.908Z,44.47
2018-03-06T07:11:32.091Z,44.41
2018-03-06T07:13:58.278Z,44.49
2018-03-06T07:16:24.472Z,44.44
2018-03-06T07:18:51.026Z,44.63
2018-03-06T07:21:17.212Z,44.66
2018-03-06T07:23:43.624Z,44.70
2018-03-06T07:26:09.808Z,44.33
2018-03-06T07:28:36.129Z,43.89
2018-03-06T07:31:02.285Z,43.70
2018-03-06T07:33:28.484Z,43.66
2018-03-06T07:35:54.679Z,43.58
2018-03-06T07:38:20.891Z,43.51
2018-03-06T07:40:47.095Z,43.45
2018-03-06T07:43:13.618Z,43.39
2018-03-06T07:45:39.843Z,43.33
2018-03-06T07:48:06.120Z,43.26
2018-03-06T07:50:32.278Z,43.18
2018-03-06T07:52:58.444Z,43.11
2018-03-06T07:55:24.643Z,43.06
2018-03-06T07:57:50.833Z,43.02
2018-03-06T08:00:17.054Z,42.94
2018-03-06T08:02:43.226Z,42.87
2018-03-06T08:05:09.637Z,42.81
2018-03-06T08:07:35.823Z,42.71
2018-03-06T08:10:02.123Z,42.65
2018-03-06T08:12:28.308Z,42.59
2018-03-06T08:14:54.475Z,42.53
2018-03-06T08:17:21.015Z,42.50
2018-03-06T08:19:47.220Z,42.46
2018-03-06T08:22:13.459Z,42.44
2018-03-06T08:24:39.631Z,42.40
2018-03-06T08:27:05.798Z,42.37
2018-03-06T08:29:32.032Z,42.33
2018-03-06T08:31:58.221Z,42.33
2018-03-06T08:34:24.417Z,42.28
2018-03-06T08:36:50.587Z,42.23
2018-03-06T08:39:16.823Z,42.13
2018-03-06T08:41:43.027Z,42.08
2018-03-06T08:44:09.235Z,42.03
2018-03-06T08:46:35.460Z,42.03
2018-03-06T08:49:01.672Z,42.00
2018-03-06T08:51:27.905Z,41.95
2018-03-06T08:53:54.053Z,41.91
2018-03-06T08:56:20.558Z,41.89
2018-03-06T08:58:47.090Z,41.84
2018-03-06T09:01:13.312Z,41.79
2018-03-06T09:03:39.555Z,41.73
2018-03-06T09:06:05.705Z,41.69
2018-03-06T09:08:31.901Z,41.63
2018-03-06T09:10:58.099Z,41.57
2018-03-06T09:13:24.316Z,41.54
2018-03-06T09:15:50.796Z,41.48
2018-03-06T09:18:16.970Z,41.43
2018-03-06T09:20:43.213Z,41.35
2018-03-06T09:23:09.403Z,41.36
2018-03-06T09:25:35.569Z,41.29
2018-03-06T09:28:02.134Z,41.23
2018-03-06T09:30:28.340Z,41.19
2018-03-06T09:32:54.797Z,41.18
2018-03-06T09:35:21.019Z,41.12
2018-03-06T09:37:47.463Z,41.04
2018-03-06T09:40:13.636Z,41.04
2018-03-06T09:42:39.796Z,41.02
2018-03-06T09:45:05.983Z,41.01
2018-03-06T09:47:32.194Z,40.97
2018-03-06T09:49:58.702Z,40.91
2018-03-06T09:52:24.917Z,40.87
2018-03-06T09:54:51.132Z,40.87
2018-03-06T09:57:17.318Z,40.84
2018-03-06T09:59:43.491Z,40.81
2018-03-06T10:02:09.728Z,40.79
2018-03-06T10:04:35.918Z,40.73
2018-03-06T10:07:02.091Z,40.68
2018-03-06T10:09:28.550Z,40.65
2018-03-06T10:11:54.742Z,40.63
2018-03-06T10:14:20.901Z,40.60
2018-03-06T10:16:47.075Z,40.58
2018-03-06T10:19:13.264Z,40.53
2018-03-06T10:21:39.493Z,40.46
2018-03-06T10:24:05.681Z,40.44
2018-03-06T10:26:31.863Z,40.42
2018-03-06T10:28:58.153Z,40.40
2018-03-06T10:31:24.353Z,40.39
2018-03-06T10:33:50.615Z,40.35
2018-03-06T10:36:16.891Z,40.34
2018-03-06T10:38:43.143Z,40.29
2018-03-06T10:41:09.322Z,40.26
2018-03-06T10:43:35.508Z,40.25
2018-03-06T10:46:01.705Z,40.21
2018-03-06T10:48:27.912Z,40.16
2018-03-06T10:50:54.069Z,40.11
2018-03-06T10:53:20.275Z,40.11
2018-03-06T10:55:46.486Z,40.13
2018-03-06T10:58:12.652Z,40.08
2018-03-06T11:00:44.786Z,40.06
2018-03-06T11:03:10.945Z,40.08
2018-03-06T11:05:37.152Z,40.07
2018-03-06T11:08:03.318Z,40.01
2018-03-06T11:10:29.543Z,39.95
2018-03-06T11:12:55.828Z,39.90
2018-03-06T11:15:22.066Z,40.08
2018-03-06T11:17:48.283Z,40.57
2018-03-06T11:20:14.490Z,40.72
2018-03-06T11:22:40.736Z,40.80
2018-03-06T11:25:06.920Z,40.87
2018-03-06T11:27:33.083Z,40.87
2018-03-06T11:29:59.319Z,40.84
2018-03-06T11:32:25.507Z,40.83
2018-03-06T11:34:51.692Z,40.90
2018-03-06T11:37:17.975Z,40.91
2018-03-06T11:39:44.176Z,41.08
2018-03-06T11:42:10.358Z,40.72
2018-03-06T11:44:36.571Z,40.70
2018-03-06T11:47:02.774Z,40.93
2018-03-06T11:49:29.267Z,41.12
2018-03-06T11:51:55.443Z,41.04
2018-03-06T11:54:21.968Z,40.95
2018-03-06T11:56:48.235Z,41.48
2018-03-06T11:59:14.394Z,42.21
2018-03-06T12:01:40.592Z,42.42
2018-03-06T12:04:07.179Z,42.46
2018-03-06T12:06:33.368Z,42.23
2018-03-06T12:08:59.777Z,42.23
2018-03-06T12:11:26.054Z,42.21
2018-03-06T12:13:52.265Z,42.11
2018-03-06T12:16:18.463Z,41.95
2018-03-06T12:18:44.707Z,41.85
2018-03-06T12:21:11.166Z,41.73
2018-03-06T12:23:37.336Z,41.56
2018-03-06T12:26:03.953Z,41.57
2018-03-06T12:28:30.140Z,41.32
2018-03-06T12:30:56.356Z,41.27
2018-03-06T12:33:22.587Z,41.27
2018-03-06T12:35:48.744Z,41.02
2018-03-06T12:38:15.192Z,40.50
2018-03-06T12:40:41.738Z,40.33
2018-03-06T12:43:08.274Z,40.11
2018-03-06T12:45:34.502Z,40.06
2018-03-06T12:48:00.703Z,39.99
2018-03-06T12:50:26.914Z,39.99
2018-03-06T12:52:53.165Z,39.94
2018-03-06T12:55:19.611Z,39.88
2018-03-06T12:57:46.054Z,39.82
2018-03-06T13:00:12.505Z,39.78
2018-03-06T13:02:38.674Z,39.71
2018-03-06T13:05:04.893Z,39.61
2018-03-06T13:07:31.370Z,39.55
2018-03-06T13:09:57.546Z,39.48
2018-03-06T13:12:23.794Z,39.44
2018-03-06T13:14:49.999Z,39.42
2018-03-06T13:17:16.158Z,39.37
2018-03-06T13:19:42.395Z,39.31
2018-03-06T13:22:08.896Z,39.28
2018-03-06T13:24:35.387Z,39.22
2018-03-06T13:27:01.917Z,39.17
2018-03-06T13:29:28.193Z,39.14
2018-03-06T13:31:54.441Z,39.05
2018-03-06T13:34:20.667Z,38.98
2018-03-06T13:36:46.884Z,38.98
2018-03-06T13:39:13.116Z,38.92
2018-03-06T13:41:39.593Z,38.87
2018-03-06T13:44:06.124Z,38.79
2018-03-06T13:46:32.350Z,38.74
2018-03-06T13:48:58.538Z,38.68
2018-03-06T13:51:24.734Z,38.65
2018-03-06T13:53:50.950Z,38.64
2018-03-06T13:56:17.166Z,38.59
2018-03-06T13:58:43.416Z,38.56
2018-03-06T14:01:09.636Z,38.53
2018-03-06T14:03:35.861Z,38.50
2018-03-06T14:06:02.076Z,38.43
2018-03-06T14:08:28.252Z,38.38
2018-03-06T14:10:54.440Z,38.29
2018-03-06T14:13:20.678Z,38.22
2018-03-06T14:15:47.188Z,38.13
2018-03-06T14:18:13.731Z,38.05
2018-03-06T14:20:39.938Z,37.89
2018-03-06T14:23:06.210Z,37.71
2018-03-06T14:25:39.357Z,37.56
2018-03-06T14:28:05.566Z,37.37
2018-03-06T14:30:31.787Z,37.20
2018-03-06T14:32:58.062Z,37.08
2018-03-06T14:35:24.329Z,36.95
2018-03-06T14:37:50.519Z,36.73
2018-03-06T14:40:17.016Z,36.35
2018-03-06T14:42:43.240Z,35.66
2018-03-06T14:45:09.463Z,35.02
2018-03-06T14:47:35.677Z,34.71
2018-03-06T14:50:01.864Z,34.66
2018-03-06T14:52:28.105Z,34.72
2018-03-06T14:54:54.285Z,34.83
2018-03-06T14:57:20.465Z,35.02
2018-03-06T14:59:46.722Z,35.17
2018-03-06T15:02:12.880Z,35.36
2018-03-06T15:04:39.059Z,35.51
2018-03-06T15:07:05.299Z,35.69
2018-03-06T15:09:31.482Z,35.83
2018-03-06T15:11:57.737Z,35.97
2018-03-06T15:14:24.006Z,36.10
2018-03-06T15:16:50.172Z,36.21
2018-03-06T15:19:16.342Z,36.28
2018-03-06T15:21:42.537Z,36.34
2018-03-06T15:24:08.706Z,36.32
2018-03-06T15:26:34.914Z,36.41
2018-03-06T15:29:01.120Z,36.50
2018-03-06T15:31:27.377Z,36.49
2018-03-06T15:33:53.659Z,36.50
2018-03-06T15:36:19.839Z,36.53
2018-03-06T15:38:46.067Z,36.64
2018-03-06T15:41:12.245Z,36.69
2018-03-06T15:43:38.417Z,36.73
2018-03-06T15:46:04.674Z,36.79
2018-03-06T15:48:30.868Z,36.87
2018-03-06T15:50:57.070Z,36.93
2018-03-06T15:53:23.278Z,37.01
2018-03-06T15:55:49.464Z,37.12
2018-03-06T15:58:16.045Z,37.28
2018-03-06T16:00:42.218Z,37.39
2018-03-06T16:03:08.393Z,37.45
2018-03-06T16:05:34.593Z,37.53
2018-03-06T16:08:01.057Z,37.57
2018-03-06T16:10:27.368Z,37.68
2018-03-06T16:12:53.995Z,37.79
2018-03-06T16:15:20.159Z,37.93
2018-03-06T16:17:46.365Z,38.06
2018-03-06T16:20:12.565Z,38.21
2018-03-06T16:22:38.789Z,38.37
2018-03-06T16:25:04.961Z,38.54
2018-03-06T16:27:31.190Z,38.66
2018-03-06T16:29:57.621Z,38.79
2018-03-06T16:32:23.840Z,38.91
2018-03-06T16:34:50.112Z,39.05
2018-03-06T16:37:16.305Z,39.18
2018-03-06T16:39:42.841Z,39.27
2018-03-06T16:42:09.051Z,39.38
2018-03-06T16:44:35.249Z,39.47
2018-03-06T16:47:01.427Z,39.58
2018-03-06T16:49:27.955Z,39.68
2018-03-06T16:51:54.201Z,39.76
2018-03-06T16:54:20.376Z,39.90
2018-03-06T16:56:46.641Z,39.98
2018-03-06T16:59:12.861Z,40.04
2018-03-06T17:01:39.059Z,40.13
2018-03-06T17:04:05.631Z,40.21
2018-03-06T17:06:31.818Z,40.29
2018-03-06T17:08:58.007Z,40.37
2018-03-06T17:11:24.223Z,40.44
2018-03-06T17:13:50.418Z,40.51
2018-03-06T17:16:16.646Z,40.59
2018-03-06T17:18:43.148Z,40.69
2018-03-06T17:21:09.386Z,40.75
2018-03-06T17:23:35.571Z,41.13
2018-03-06T17:26:01.757Z,41.36
2018-03-06T17:28:27.967Z,41.51
2018-03-06T17:30:54.177Z,41.65
2018-03-06T17:33:20.342Z,41.80
2018-03-06T17:35:46.567Z,41.88
2018-03-06T17:38:12.784Z,41.92
2018-03-06T17:40:38.980Z,42.00
2018-03-06T17:43:05.193Z,42.07
2018-03-06T17:45:31.392Z,42.06
2018-03-06T17:47:57.947Z,42.05
2018-03-06T17:50:24.110Z,42.05
2018-03-06T17:52:50.552Z,42.07
2018-03-06T17:55:16.739Z,42.13
2018-03-06T17:57:42.913Z,42.11
2018-03-06T18:00:09.151Z,41.95
2018-03-06T18:02:35.402Z,41.95
2018-03-06T18:05:01.582Z,42.07
2018-03-06T18:07:27.784Z,42.01
2018-03-06T18:09:53.964Z,41.94
2018-03-06T18:12:20.430Z,41.99
2018-03-06T18:14:46.617Z,42.05
2018-03-06T18:17:13.094Z,42.06
2018-03-06T18:19:39.933Z,42.10
2018-03-06T18:22:06.116Z,42.11
2018-03-06T18:24:32.293Z,42.13
2018-03-06T18:26:58.500Z,42.15
2018-03-06T18:29:24.920Z,42.17
2018-03-06T18:31:51.139Z,42.17
2018-03-06T18:34:17.416Z,42.22
2018-03-06T18:36:43.632Z,42.23
2018-03-06T18:39:09.812Z,42.23
2018-03-06T18:41:36.012Z,42.27
2018-03-06T18:44:02.195Z,42.28
2018-03-06T18:46:28.641Z,42.30
2018-03-06T18:48:54.882Z,42.32
2018-03-06T18:51:21.099Z,42.34
2018-03-06T18:53:47.266Z,42.61
2018-03-06T18:56:13.465Z,42.57
2018-03-06T18:58:39.695Z,42.77
2018-03-06T19:04:19.165Z,42.89
2018-03-06T19:09:43.418Z,43.01
2018-03-06T19:12:09.829Z,43.07
2018-03-06T19:14:36.315Z,43.09
2018-03-06T19:17:02.876Z,43.15
2018-03-06T19:19:29.029Z,43.14
2018-03-06T19:21:55.259Z,43.18
2018-03-06T19:24:21.742Z,43.35
2018-03-06T19:26:55.131Z,43.32
2018-03-06T19:29:21.307Z,43.34
2018-03-06T19:31:47.794Z,43.43
2018-03-06T19:34:14.019Z,43.52
2018-03-06T19:36:40.193Z,43.52
2018-03-06T19:39:06.357Z,43.53
2018-03-06T19:41:32.667Z,43.61
2018-03-06T19:43:58.894Z,43.59
2018-03-06T19:46:25.049Z,43.68
2018-03-06T19:48:51.246Z,43.69
2018-03-06T19:51:17.423Z,43.74
2018-03-06T19:53:43.588Z,43.71
2018-03-06T19:56:09.768Z,43.72
2018-03-06T19:58:35.930Z,43.82
2018-03-06T20:01:02.244Z,43.80
2018-03-06T20:03:28.412Z,43.80
2018-03-06T20:05:54.649Z,43.82
2018-03-06T20:08:20.806Z,43.82
2018-03-06T20:10:46.985Z,43.85
2018-03-06T20:13:13.181Z,43.92
2018-03-06T20:15:39.376Z,43.94
2018-03-06T20:18:05.540Z,43.94
2018-03-06T20:20:31.675Z,43.92
2018-03-06T20:22:58.178Z,43.96
2018-03-06T20:25:30.553Z,44.02
2018-03-06T20:27:56.751Z,44.01
2018-03-06T20:30:29.359Z,44.02
2018-03-06T20:33:01.697Z,44.02
2018-03-06T20:35:27.915Z,44.01
2018-03-06T20:37:54.095Z,44.03
2018-03-06T20:40:26.288Z,44.22
2018-03-06T20:42:52.429Z,44.20
2018-03-06T20:45:18.622Z,44.17
2018-03-06T20:47:44.791Z,44.22
2018-03-06T20:50:10.988Z,44.30
2018-03-06T20:55:39.327Z,44.29
2018-03-06T20:58:05.472Z,44.36
2018-03-06T21:00:31.914Z,44.60
2018-03-06T21:02:58.126Z,44.57
2018-03-06T21:05:24.281Z,44.50
2018-03-06T21:07:50.695Z,44.52
2018-03-06T21:10:17.135Z,44.53
2018-03-06T21:12:43.362Z,44.59
2018-03-06T21:15:09.541Z,44.61
2018-03-06T21:17:35.696Z,44.67
2018-03-06T21:20:01.899Z,44.72
2018-03-06T21:22:28.380Z,44.78
2018-03-06T21:24:54.584Z,44.64
2018-03-06T21:27:20.745Z,44.59
2018-03-06T21:29:46.930Z,44.55
2018-03-06T21:32:13.086Z,44.56
2018-03-06T21:34:39.287Z,44.57
2018-03-06T21:37:05.479Z,44.60
2018-03-06T21:39:31.668Z,44.54
2018-03-06T21:41:57.853Z,44.55
2018-03-06T21:44:24.032Z,44.61
2018-03-06T21:46:50.204Z,44.64
2018-03-06T21:49:16.683Z,44.51
2018-03-06T21:51:42.831Z,44.44
2018-03-06T21:54:09.001Z,44.43
2018-03-06T21:56:35.182Z,44.43
2018-03-06T21:59:01.384Z,44.49
2018-03-06T22:01:27.560Z,44.31
2018-03-06T22:03:53.734Z,44.25
2018-03-06T22:06:19.934Z,44.49
2018-03-06T22:08:46.119Z,44.75
2018-03-06T22:11:12.304Z,44.91
2018-03-06T22:13:38.759Z,44.95
2018-03-06T22:16:04.976Z,45.03
2018-03-06T22:18:31.464Z,45.12
2018-03-06T22:20:57.617Z,45.11
2018-03-06T22:23:23.844Z,45.11
2018-03-06T22:25:50.010Z,45.28
2018-03-06T22:28:16.188Z,45.17
2018-03-06T22:30:42.415Z,45.36
2018-03-06T22:33:08.581Z,45.44
2018-03-06T22:35:34.756Z,45.47
2018-03-06T22:38:01.062Z,45.51
2018-03-06T22:40:27.316Z,45.47
2018-03-06T22:42:53.506Z,45.48
2018-03-06T22:45:19.738Z,45.49
2018-03-06T22:47:46.262Z,45.48
2018-03-06T22:50:12.430Z,45.49
2018-03-06T22:52:38.626Z,45.44
2018-03-06T22:55:04.814Z,45.47
2018-03-06T22:57:31.004Z,45.55
2018-03-06T22:59:57.239Z,45.55
2018-03-06T23:02:23.388Z,45.64
2018-03-06T23:04:49.777Z,45.67
2018-03-06T23:07:15.970Z,45.78
2018-03-06T23:09:42.252Z,45.84
2018-03-06T23:12:08.471Z,45.91
2018-03-06T23:14:34.661Z,46.15
2018-03-06T23:17:01.202Z,46.23
2018-03-06T23:19:27.351Z,46.28
2018-03-06T23:21:53.562Z,46.25
2018-03-06T23:24:19.723Z,46.25
2018-03-06T23:26:45.895Z,46.30
2018-03-06T23:29:12.093Z,46.31
2018-03-06T23:31:38.273Z,46.38
2018-03-06T23:34:04.594Z,46.40
2018-03-06T23:36:30.732Z,46.56
2018-03-06T23:38:56.929Z,46.43
2018-03-06T23:41:23.137Z,46.35
2018-03-06T23:43:49.293Z,46.36
2018-03-06T23:46:15.737Z,46.38
2018-03-06T23:48:42.270Z,46.43
2018-03-06T23:51:08.518Z,46.45
2018-03-06T23:53:34.702Z,46.48
2018-03-06T23:56:00.910Z,46.66
2018-03-06T23:58:27.061Z,46.50
